Terminal Aerodrome Forecast
Issued by NWS Sioux Falls, SD

Home | Current Version | Previous Version | Graphics & Text | Print | Product List | Glossary On
Versions: 1 2 3 4 5 6 7 8 9 10 11 12 13 14 15 16 17 18 19 20 21 22 23 24 25
000
FTUS43 KFSD 210500
TAFFSD
TAF
KFSD 210527Z 2106/2206 16010KT P6SM FEW250
     FM211000 15007KT 5SM BR SCT004 BKN008
     FM211600 16008KT P6SM SCT008 BKN015
     FM211900 16011KT P6SM SCT022
     FM212000 17013G20KT P6SM BKN200
     FM220100 18008KT P6SM SCT100=

USA.gov is the U.S. government's official web portal to all federal, state and local government web resources and services.